sensor_id;sensor_type;location;lat;lon;timestamp;temperature;humidity
17092;DHT22;8661;45.700;4.880;2023-08-21T00:01:32;27.40;94.70
17092;DHT22;8661;45.700;4.880;2023-08-21T00:03:59;27.40;95.00
17092;DHT22;8661;45.700;4.880;2023-08-21T00:06:26;27.40;95.10
17092;DHT22;8661;45.700;4.880;2023-08-21T00:08:53;27.30;95.40
17092;DHT22;8661;45.700;4.880;2023-08-21T00:11:21;27.30;95.60
17092;DHT22;8661;45.700;4.880;2023-08-21T00:13:48;27.20;95.80
17092;DHT22;8661;45.700;4.880;2023-08-21T00:16:15;27.20;96.00
17092;DHT22;8661;45.700;4.880;2023-08-21T00:18:42;27.20;96.30
17092;DHT22;8661;45.700;4.880;2023-08-21T00:21:10;27.10;96.50
17092;DHT22;8661;45.700;4.880;2023-08-21T00:23:36;27.10;96.60
17092;DHT22;8661;45.700;4.880;2023-08-21T00:26:04;27.10;96.80
17092;DHT22;8661;45.700;4.880;2023-08-21T00:28:32;27.00;97.00
17092;DHT22;8661;45.700;4.880;2023-08-21T00:31:01;27.00;97.10
17092;DHT22;8661;45.700;4.880;2023-08-21T00:33:28;27.00;97.30
17092;DHT22;8661;45.700;4.880;2023-08-21T00:35:54;27.00;97.50
17092;DHT22;8661;45.700;4.880;2023-08-21T00:38:21;27.00;97.60
17092;DHT22;8661;45.700;4.880;2023-08-21T00:40:49;27.00;97.80
17092;DHT22;8661;45.700;4.880;2023-08-21T00:43:16;26.90;97.90
17092;DHT22;8661;45.700;4.880;2023-08-21T00:45:45;26.90;97.90
17092;DHT22;8661;45.700;4.880;2023-08-21T00:48:14;26.90;98.10
17092;DHT22;8661;45.700;4.880;2023-08-21T00:50:41;26.80;98.20
17092;DHT22;8661;45.700;4.880;2023-08-21T00:53:08;26.80;98.40
17092;DHT22;8661;45.700;4.880;2023-08-21T00:55:35;26.70;98.50
17092;DHT22;8661;45.700;4.880;2023-08-21T00:58:03;26.60;98.70
17092;DHT22;8661;45.700;4.880;2023-08-21T01:00:31;26.50;98.80
17092;DHT22;8661;45.700;4.880;2023-08-21T01:02:59;26.50;99.10
17092;DHT22;8661;45.700;4.880;2023-08-21T01:05:26;26.50;99.20
17092;DHT22;8661;45.700;4.880;2023-08-21T01:07:57;26.40;99.40
17092;DHT22;8661;45.700;4.880;2023-08-21T01:10:36;26.40;99.70
17092;DHT22;8661;45.700;4.880;2023-08-21T01:13:11;26.40;99.90
17092;DHT22;8661;45.700;4.880;2023-08-21T01:15:41;26.30;99.90
17092;DHT22;8661;45.700;4.880;2023-08-21T01:18:11;26.30;99.90
17092;DHT22;8661;45.700;4.880;2023-08-21T01:20:38;26.20;99.90
17092;DHT22;8661;45.700;4.880;2023-08-21T01:23:06;26.20;99.90
17092;DHT22;8661;45.700;4.880;2023-08-21T01:25:34;26.10;99.90
17092;DHT22;8661;45.700;4.880;2023-08-21T01:28:01;26.10;99.90
17092;DHT22;8661;45.700;4.880;2023-08-21T01:30:31;26.10;99.90
17092;DHT22;8661;45.700;4.880;2023-08-21T01:33:02;26.10;99.90
17092;DHT22;8661;45.700;4.880;2023-08-21T01:35:33;26.00;99.90
17092;DHT22;8661;45.700;4.880;2023-08-21T01:38:02;26.00;99.90
17092;DHT22;8661;45.700;4.880;2023-08-21T01:40:30;26.00;99.90
17092;DHT22;8661;45.700;4.880;2023-08-21T01:42:58;25.90;99.90
17092;DHT22;8661;45.700;4.880;2023-08-21T01:45:26;25.90;99.90
17092;DHT22;8661;45.700;4.880;2023-08-21T01:47:53;25.90;99.90
17092;DHT22;8661;45.700;4.880;2023-08-21T01:50:20;25.80;99.90
17092;DHT22;8661;45.700;4.880;2023-08-21T01:52:46;25.80;99.90
17092;DHT22;8661;45.700;4.880;2023-08-21T01:55:13;25.80;99.90
17092;DHT22;8661;45.700;4.880;2023-08-21T01:57:40;25.80;99.90
17092;DHT22;8661;45.700;4.880;2023-08-21T02:00:10;25.70;99.90
17092;DHT22;8661;45.700;4.880;2023-08-21T02:02:38;25.70;99.90
17092;DHT22;8661;45.700;4.880;2023-08-21T02:05:06;25.70;99.90
17092;DHT22;8661;45.700;4.880;2023-08-21T02:07:33;25.70;99.90
17092;DHT22;8661;45.700;4.880;2023-08-21T02:10:00;25.60;99.90
17092;DHT22;8661;45.700;4.880;2023-08-21T02:12:26;25.60;99.90
17092;DHT22;8661;45.700;4.880;2023-08-21T02:14:53;25.50;99.90
17092;DHT22;8661;45.700;4.880;2023-08-21T02:17:22;25.50;99.90
17092;DHT22;8661;45.700;4.880;2023-08-21T02:19:48;25.50;99.90
17092;DHT22;8661;45.700;4.880;2023-08-21T02:22:15;25.50;99.90
17092;DHT22;8661;45.700;4.880;2023-08-21T02:24:42;25.40;99.90
17092;DHT22;8661;45.700;4.880;2023-08-21T02:27:09;25.40;99.90
17092;DHT22;8661;45.700;4.880;2023-08-21T02:29:36;25.40;99.90
17092;DHT22;8661;45.700;4.880;2023-08-21T02:32:03;25.30;99.90
17092;DHT22;8661;45.700;4.880;2023-08-21T02:34:31;25.30;99.90
17092;DHT22;8661;45.700;4.880;2023-08-21T02:36:58;25.30;99.90
17092;DHT22;8661;45.700;4.880;2023-08-21T02:39:25;25.30;99.90
17092;DHT22;8661;45.700;4.880;2023-08-21T02:41:52;25.20;99.90
17092;DHT22;8661;45.700;4.880;2023-08-21T02:44:19;25.20;99.90
17092;DHT22;8661;45.700;4.880;2023-08-21T02:46:46;25.20;99.90
17092;DHT22;8661;45.700;4.880;2023-08-21T02:49:12;25.20;99.90
17092;DHT22;8661;45.700;4.880;2023-08-21T02:51:41;25.10;99.90
17092;DHT22;8661;45.700;4.880;2023-08-21T02:54:08;25.10;99.90
17092;DHT22;8661;45.700;4.880;2023-08-21T02:56:34;25.10;99.90
17092;DHT22;8661;45.700;4.880;2023-08-21T02:59:01;25.00;99.90
17092;DHT22;8661;45.700;4.880;2023-08-21T03:01:28;25.00;99.90
17092;DHT22;8661;45.700;4.880;2023-08-21T03:03:55;25.00;99.90
17092;DHT22;8661;45.700;4.880;2023-08-21T03:06:22;24.90;99.90
17092;DHT22;8661;45.700;4.880;2023-08-21T03:08:50;24.90;99.90
17092;DHT22;8661;45.700;4.880;2023-08-21T03:11:17;24.90;99.90
17092;DHT22;8661;45.700;4.880;2023-08-21T03:13:44;24.90;99.90
17092;DHT22;8661;45.700;4.880;2023-08-21T03:16:10;24.90;99.90
17092;DHT22;8661;45.700;4.880;2023-08-21T03:18:55;24.90;99.90
17092;DHT22;8661;45.700;4.880;2023-08-21T03:21:23;24.90;99.90
17092;DHT22;8661;45.700;4.880;2023-08-21T03:23:54;24.80;99.90
17092;DHT22;8661;45.700;4.880;2023-08-21T03:26:21;24.80;99.90
17092;DHT22;8661;45.700;4.880;2023-08-21T03:28:48;24.80;99.90
17092;DHT22;8661;45.700;4.880;2023-08-21T03:31:15;24.80;99.90
17092;DHT22;8661;45.700;4.880;2023-08-21T03:33:42;24.80;99.90
17092;DHT22;8661;45.700;4.880;2023-08-21T03:36:09;24.70;99.90
17092;DHT22;8661;45.700;4.880;2023-08-21T03:38:36;24.80;99.90
17092;DHT22;8661;45.700;4.880;2023-08-21T03:41:04;24.70;99.90
17092;DHT22;8661;45.700;4.880;2023-08-21T03:43:31;24.70;99.90
17092;DHT22;8661;45.700;4.880;2023-08-21T03:45:58;24.70;99.90
17092;DHT22;8661;45.700;4.880;2023-08-21T03:48:25;24.70;99.90
17092;DHT22;8661;45.700;4.880;2023-08-21T03:50:52;24.70;99.90
17092;DHT22;8661;45.700;4.880;2023-08-21T03:53:19;24.70;99.90
17092;DHT22;8661;45.700;4.880;2023-08-21T03:55:46;24.60;99.90
17092;DHT22;8661;45.700;4.880;2023-08-21T03:58:14;24.60;99.90
17092;DHT22;8661;45.700;4.880;2023-08-21T04:00:41;24.60;99.90
17092;DHT22;8661;45.700;4.880;2023-08-21T04:03:08;24.60;99.90
17092;DHT22;8661;45.700;4.880;2023-08-21T04:05:35;24.50;99.90
17092;DHT22;8661;45.700;4.880;2023-08-21T04:08:02;24.50;99.90
17092;DHT22;8661;45.700;4.880;2023-08-21T04:10:29;24.50;99.90
17092;DHT22;8661;45.700;4.880;2023-08-21T04:12:56;24.50;99.90
17092;DHT22;8661;45.700;4.880;2023-08-21T04:15:25;24.50;99.90
17092;DHT22;8661;45.700;4.880;2023-08-21T04:17:51;24.50;99.90
17092;DHT22;8661;45.700;4.880;2023-08-21T04:20:20;24.50;99.90
17092;DHT22;8661;45.700;4.880;2023-08-21T04:22:47;24.50;99.90
17092;DHT22;8661;45.700;4.880;2023-08-21T04:25:14;24.50;99.90
17092;DHT22;8661;45.700;4.880;2023-08-21T04:27:41;24.50;99.90
17092;DHT22;8661;45.700;4.880;2023-08-21T04:30:09;24.50;99.90
17092;DHT22;8661;45.700;4.880;2023-08-21T04:32:37;24.60;99.90
17092;DHT22;8661;45.700;4.880;2023-08-21T04:35:05;24.60;99.90
17092;DHT22;8661;45.700;4.880;2023-08-21T04:37:33;24.70;99.90
17092;DHT22;8661;45.700;4.880;2023-08-21T04:40:00;24.80;99.90
17092;DHT22;8661;45.700;4.880;2023-08-21T04:42:27;24.80;99.90
17092;DHT22;8661;45.700;4.880;2023-08-21T04:44:54;24.90;99.90
17092;DHT22;8661;45.700;4.880;2023-08-21T04:47:22;24.90;99.90
17092;DHT22;8661;45.700;4.880;2023-08-21T04:49:51;24.90;99.90
17092;DHT22;8661;45.700;4.880;2023-08-21T04:52:18;25.00;99.90
17092;DHT22;8661;45.700;4.880;2023-08-21T04:54:45;25.00;99.90
17092;DHT22;8661;45.700;4.880;2023-08-21T04:57:12;25.00;99.90
17092;DHT22;8661;45.700;4.880;2023-08-21T04:59:39;25.00;99.90
17092;DHT22;8661;45.700;4.880;2023-08-21T05:02:06;25.10;99.90
17092;DHT22;8661;45.700;4.880;2023-08-21T05:04:37;25.10;99.90
17092;DHT22;8661;45.700;4.880;2023-08-21T05:07:05;25.20;99.90
17092;DHT22;8661;45.700;4.880;2023-08-21T05:09:32;25.20;99.90
17092;DHT22;8661;45.700;4.880;2023-08-21T05:12:00;25.20;99.90
17092;DHT22;8661;45.700;4.880;2023-08-21T05:14:27;25.30;99.90
17092;DHT22;8661;45.700;4.880;2023-08-21T05:16:53;25.30;99.90
17092;DHT22;8661;45.700;4.880;2023-08-21T05:19:20;25.30;99.90
17092;DHT22;8661;45.700;4.880;2023-08-21T05:21:48;25.40;99.90
17092;DHT22;8661;45.700;4.880;2023-08-21T05:24:17;25.40;99.90
17092;DHT22;8661;45.700;4.880;2023-08-21T05:26:45;25.50;99.90
17092;DHT22;8661;45.700;4.880;2023-08-21T05:29:12;25.50;99.90
17092;DHT22;8661;45.700;4.880;2023-08-21T05:31:42;25.60;99.90
17092;DHT22;8661;45.700;4.880;2023-08-21T05:34:09;25.60;99.90
17092;DHT22;8661;45.700;4.880;2023-08-21T05:36:36;25.70;99.90
17092;DHT22;8661;45.700;4.880;2023-08-21T05:39:04;25.70;99.90
17092;DHT22;8661;45.700;4.880;2023-08-21T05:41:33;25.80;99.90
17092;DHT22;8661;45.700;4.880;2023-08-21T05:44:00;25.90;99.90
17092;DHT22;8661;45.700;4.880;2023-08-21T05:46:27;26.00;99.90
17092;DHT22;8661;45.700;4.880;2023-08-21T05:48:53;26.10;99.90
17092;DHT22;8661;45.700;4.880;2023-08-21T05:51:20;26.30;99.90
17092;DHT22;8661;45.700;4.880;2023-08-21T05:53:47;26.50;99.90
17092;DHT22;8661;45.700;4.880;2023-08-21T05:56:14;26.70;99.90
17092;DHT22;8661;45.700;4.880;2023-08-21T05:58:42;26.90;99.90
17092;DHT22;8661;45.700;4.880;2023-08-21T06:01:09;27.30;99.90
17092;DHT22;8661;45.700;4.880;2023-08-21T06:03:36;27.60;99.90
17092;DHT22;8661;45.700;4.880;2023-08-21T06:06:03;28.00;99.90
17092;DHT22;8661;45.700;4.880;2023-08-21T06:08:30;28.40;99.90
17092;DHT22;8661;45.700;4.880;2023-08-21T06:10:57;28.80;99.90
17092;DHT22;8661;45.700;4.880;2023-08-21T06:13:25;29.20;99.90
17092;DHT22;8661;45.700;4.880;2023-08-21T06:15:53;29.40;99.90
17092;DHT22;8661;45.700;4.880;2023-08-21T06:18:20;29.80;99.90
17092;DHT22;8661;45.700;4.880;2023-08-21T06:20:48;30.10;99.90
17092;DHT22;8661;45.700;4.880;2023-08-21T06:23:19;30.30;99.90
17092;DHT22;8661;45.700;4.880;2023-08-21T06:25:47;30.50;99.90
17092;DHT22;8661;45.700;4.880;2023-08-21T06:28:14;30.70;99.90
17092;DHT22;8661;45.700;4.880;2023-08-21T06:30:41;30.90;99.90
17092;DHT22;8661;45.700;4.880;2023-08-21T06:33:09;31.20;99.90
17092;DHT22;8661;45.700;4.880;2023-08-21T06:35:37;31.60;98.50
17092;DHT22;8661;45.700;4.880;2023-08-21T06:38:04;32.00;97.00
17092;DHT22;8661;45.700;4.880;2023-08-21T06:40:31;32.20;95.90
17092;DHT22;8661;45.700;4.880;2023-08-21T06:42:58;32.30;95.30
17092;DHT22;8661;45.700;4.880;2023-08-21T06:45:25;32.60;94.40
17092;DHT22;8661;45.700;4.880;2023-08-21T06:47:55;33.10;93.30
17092;DHT22;8661;45.700;4.880;2023-08-21T06:50:23;33.50;92.30
17092;DHT22;8661;45.700;4.880;2023-08-21T06:52:50;33.70;91.60
17092;DHT22;8661;45.700;4.880;2023-08-21T06:55:17;34.00;90.80
17092;DHT22;8661;45.700;4.880;2023-08-21T06:57:44;34.40;89.80
17092;DHT22;8661;45.700;4.880;2023-08-21T07:00:13;34.70;88.20
17092;DHT22;8661;45.700;4.880;2023-08-21T07:02:40;34.90;86.90
17092;DHT22;8661;45.700;4.880;2023-08-21T07:05:07;35.00;85.80
17092;DHT22;8661;45.700;4.880;2023-08-21T07:07:35;35.10;84.90
17092;DHT22;8661;45.700;4.880;2023-08-21T07:10:03;35.30;83.70
17092;DHT22;8661;45.700;4.880;2023-08-21T07:12:30;35.50;81.70
17092;DHT22;8661;45.700;4.880;2023-08-21T07:14:57;35.70;81.10
17092;DHT22;8661;45.700;4.880;2023-08-21T07:17:24;35.80;80.70
17092;DHT22;8661;45.700;4.880;2023-08-21T07:19:53;35.80;80.70
17092;DHT22;8661;45.700;4.880;2023-08-21T07:22:20;35.90;80.40
17092;DHT22;8661;45.700;4.880;2023-08-21T07:24:48;35.80;80.50
17092;DHT22;8661;45.700;4.880;2023-08-21T07:27:15;35.90;80.50
17092;DHT22;8661;45.700;4.880;2023-08-21T07:29:42;35.90;80.00
17092;DHT22;8661;45.700;4.880;2023-08-21T07:32:09;36.00;79.60
17092;DHT22;8661;45.700;4.880;2023-08-21T07:34:36;36.20;79.40
17092;DHT22;8661;45.700;4.880;2023-08-21T07:37:03;36.30;78.60
17092;DHT22;8661;45.700;4.880;2023-08-21T07:39:29;36.30;78.30
17092;DHT22;8661;45.700;4.880;2023-08-21T07:41:58;36.10;78.50
17092;DHT22;8661;45.700;4.880;2023-08-21T07:44:25;36.30;78.20
17092;DHT22;8661;45.700;4.880;2023-08-21T07:46:51;36.70;77.10
17092;DHT22;8661;45.700;4.880;2023-08-21T07:49:18;37.00;76.00
17092;DHT22;8661;45.700;4.880;2023-08-21T07:51:45;37.10;75.30
17092;DHT22;8661;45.700;4.880;2023-08-21T07:54:12;37.50;74.50
17092;DHT22;8661;45.700;4.880;2023-08-21T07:56:39;37.60;73.80
17092;DHT22;8661;45.700;4.880;2023-08-21T07:59:07;37.60;74.90
17092;DHT22;8661;45.700;4.880;2023-08-21T08:01:34;37.50;73.10
17092;DHT22;8661;45.700;4.880;2023-08-21T08:04:01;37.70;72.90
17092;DHT22;8661;45.700;4.880;2023-08-21T08:06:28;38.00;72.80
17092;DHT22;8661;45.700;4.880;2023-08-21T08:08:55;38.30;71.90
17092;DHT22;8661;45.700;4.880;2023-08-21T08:11:22;38.40;71.20
17092;DHT22;8661;45.700;4.880;2023-08-21T08:13:49;38.60;70.50
17092;DHT22;8661;45.700;4.880;2023-08-21T08:16:17;38.70;70.00
17092;DHT22;8661;45.700;4.880;2023-08-21T08:18:44;39.00;69.10
17092;DHT22;8661;45.700;4.880;2023-08-21T08:21:10;39.30;68.70
17092;DHT22;8661;45.700;4.880;2023-08-21T08:23:37;39.00;68.20
17092;DHT22;8661;45.700;4.880;2023-08-21T08:26:04;38.70;68.70
17092;DHT22;8661;45.700;4.880;2023-08-21T08:28:31;39.00;68.30
17092;DHT22;8661;45.700;4.880;2023-08-21T08:30:58;39.50;67.60
17092;DHT22;8661;45.700;4.880;2023-08-21T08:33:27;39.80;67.30
17092;DHT22;8661;45.700;4.880;2023-08-21T08:35:54;40.00;66.40
17092;DHT22;8661;45.700;4.880;2023-08-21T08:38:21;40.30;65.90
17092;DHT22;8661;45.700;4.880;2023-08-21T08:40:49;40.50;64.80
17092;DHT22;8661;45.700;4.880;2023-08-21T08:43:17;40.80;62.30
17092;DHT22;8661;45.700;4.880;2023-08-21T08:45:45;41.00;62.90
17092;DHT22;8661;45.700;4.880;2023-08-21T08:48:14;41.20;62.30
17092;DHT22;8661;45.700;4.880;2023-08-21T08:50:43;41.40;61.60
17092;DHT22;8661;45.700;4.880;2023-08-21T08:53:11;41.60;61.00
17092;DHT22;8661;45.700;4.880;2023-08-21T08:55:39;41.60;61.30
17092;DHT22;8661;45.700;4.880;2023-08-21T08:58:05;41.90;60.60
17092;DHT22;8661;45.700;4.880;2023-08-21T09:00:32;41.80;60.30
17092;DHT22;8661;45.700;4.880;2023-08-21T09:02:59;41.80;60.80
17092;DHT22;8661;45.700;4.880;2023-08-21T09:05:26;42.20;60.80
17092;DHT22;8661;45.700;4.880;2023-08-21T09:08:09;42.50;60.70
17092;DHT22;8661;45.700;4.880;2023-08-21T09:10:36;42.60;59.40
17092;DHT22;8661;45.700;4.880;2023-08-21T09:13:11;43.00;59.60
17092;DHT22;8661;45.700;4.880;2023-08-21T09:15:38;43.10;59.00
17092;DHT22;8661;45.700;4.880;2023-08-21T09:18:09;43.20;58.20
17092;DHT22;8661;45.700;4.880;2023-08-21T09:20:36;43.30;58.40
17092;DHT22;8661;45.700;4.880;2023-08-21T09:23:05;43.60;57.60
17092;DHT22;8661;45.700;4.880;2023-08-21T09:25:35;44.00;57.60
17092;DHT22;8661;45.700;4.880;2023-08-21T09:28:04;44.10;56.20
17092;DHT22;8661;45.700;4.880;2023-08-21T09:30:44;43.80;57.20
17092;DHT22;8661;45.700;4.880;2023-08-21T09:33:11;43.90;56.70
17092;DHT22;8661;45.700;4.880;2023-08-21T09:35:38;44.10;56.00
17092;DHT22;8661;45.700;4.880;2023-08-21T09:38:09;44.20;55.30
17092;DHT22;8661;45.700;4.880;2023-08-21T09:40:39;44.20;55.50
17092;DHT22;8661;45.700;4.880;2023-08-21T09:43:08;44.40;55.40
17092;DHT22;8661;45.700;4.880;2023-08-21T09:45:35;44.60;55.60
17092;DHT22;8661;45.700;4.880;2023-08-21T09:48:03;44.80;55.40
17092;DHT22;8661;45.700;4.880;2023-08-21T09:50:31;44.90;54.70
17092;DHT22;8661;45.700;4.880;2023-08-21T09:52:58;45.30;54.10
17092;DHT22;8661;45.700;4.880;2023-08-21T09:55:27;45.60;52.80
17092;DHT22;8661;45.700;4.880;2023-08-21T09:57:57;45.70;52.60
17092;DHT22;8661;45.700;4.880;2023-08-21T10:00:28;45.70;52.50
17092;DHT22;8661;45.700;4.880;2023-08-21T10:02:59;45.80;52.60
17092;DHT22;8661;45.700;4.880;2023-08-21T10:05:28;46.20;52.40
17092;DHT22;8661;45.700;4.880;2023-08-21T10:07:55;46.60;50.90
17092;DHT22;8661;45.700;4.880;2023-08-21T10:10:23;46.70;51.50
17092;DHT22;8661;45.700;4.880;2023-08-21T10:12:52;46.90;50.60
17092;DHT22;8661;45.700;4.880;2023-08-21T10:15:19;47.40;50.40
17092;DHT22;8661;45.700;4.880;2023-08-21T10:17:46;47.40;50.70
17092;DHT22;8661;45.700;4.880;2023-08-21T10:20:13;47.20;50.40
17092;DHT22;8661;45.700;4.880;2023-08-21T10:22:48;47.10;50.60
17092;DHT22;8661;45.700;4.880;2023-08-21T10:25:16;47.20;50.20
17092;DHT22;8661;45.700;4.880;2023-08-21T10:27:46;47.50;49.70
17092;DHT22;8661;45.700;4.880;2023-08-21T10:30:16;47.50;49.60
17092;DHT22;8661;45.700;4.880;2023-08-21T10:32:47;47.40;49.70
17092;DHT22;8661;45.700;4.880;2023-08-21T10:35:15;47.60;49.20
17092;DHT22;8661;45.700;4.880;2023-08-21T10:38:07;47.90;49.00
17092;DHT22;8661;45.700;4.880;2023-08-21T10:40:35;47.60;48.60
17092;DHT22;8661;45.700;4.880;2023-08-21T10:43:02;47.90;49.50
17092;DHT22;8661;45.700;4.880;2023-08-21T10:45:31;47.90;48.40
17092;DHT22;8661;45.700;4.880;2023-08-21T10:47:58;47.90;48.20
17092;DHT22;8661;45.700;4.880;2023-08-21T10:50:25;48.30;47.90
17092;DHT22;8661;45.700;4.880;2023-08-21T10:52:53;48.20;47.60
17092;DHT22;8661;45.700;4.880;2023-08-21T10:55:20;47.40;48.90
17092;DHT22;8661;45.700;4.880;2023-08-21T10:57:48;47.70;48.40
17092;DHT22;8661;45.700;4.880;2023-08-21T11:00:16;48.10;47.50
17092;DHT22;8661;45.700;4.880;2023-08-21T11:02:46;48.20;47.50
17092;DHT22;8661;45.700;4.880;2023-08-21T11:05:15;48.30;47.60
17092;DHT22;8661;45.700;4.880;2023-08-21T11:07:42;48.50;47.10
17092;DHT22;8661;45.700;4.880;2023-08-21T11:10:11;48.70;46.60
17092;DHT22;8661;45.700;4.880;2023-08-21T11:12:48;48.90;46.50
17092;DHT22;8661;45.700;4.880;2023-08-21T11:15:16;48.90;46.50
17092;DHT22;8661;45.700;4.880;2023-08-21T11:17:52;49.10;46.50
17092;DHT22;8661;45.700;4.880;2023-08-21T11:20:19;49.30;46.30
17092;DHT22;8661;45.700;4.880;2023-08-21T11:22:46;49.50;47.30
17092;DHT22;8661;45.700;4.880;2023-08-21T11:25:14;49.60;46.30
17092;DHT22;8661;45.700;4.880;2023-08-21T11:27:41;50.00;46.50
17092;DHT22;8661;45.700;4.880;2023-08-21T11:30:11;50.10;45.80
17092;DHT22;8661;45.700;4.880;2023-08-21T11:32:38;49.30;45.70
17092;DHT22;8661;45.700;4.880;2023-08-21T11:35:07;49.20;46.20
17092;DHT22;8661;45.700;4.880;2023-08-21T11:37:34;49.60;46.20
17092;DHT22;8661;45.700;4.880;2023-08-21T11:40:07;49.70;46.20
17092;DHT22;8661;45.700;4.880;2023-08-21T11:42:34;49.90;46.20
17092;DHT22;8661;45.700;4.880;2023-08-21T11:45:02;50.00;46.30
17092;DHT22;8661;45.700;4.880;2023-08-21T11:47:30;50.00;45.20
17092;DHT22;8661;45.700;4.880;2023-08-21T11:50:02;50.20;45.10
17092;DHT22;8661;45.700;4.880;2023-08-21T11:52:31;50.10;44.30
17092;DHT22;8661;45.700;4.880;2023-08-21T11:54:58;49.90;44.70
17092;DHT22;8661;45.700;4.880;2023-08-21T11:57:25;49.60;44.50
17092;DHT22;8661;45.700;4.880;2023-08-21T11:59:54;49.60;45.70
17092;DHT22;8661;45.700;4.880;2023-08-21T12:02:23;49.80;44.80
17092;DHT22;8661;45.700;4.880;2023-08-21T12:04:54;49.40;44.90
17092;DHT22;8661;45.700;4.880;2023-08-21T12:07:21;49.20;44.80
17092;DHT22;8661;45.700;4.880;2023-08-21T12:09:49;49.30;44.60
17092;DHT22;8661;45.700;4.880;2023-08-21T12:12:16;49.60;44.60
17092;DHT22;8661;45.700;4.880;2023-08-21T12:14:43;49.80;44.80
17092;DHT22;8661;45.700;4.880;2023-08-21T12:17:10;50.10;44.90
17092;DHT22;8661;45.700;4.880;2023-08-21T12:19:37;50.40;44.80
17092;DHT22;8661;45.700;4.880;2023-08-21T12:22:04;50.50;43.50
17092;DHT22;8661;45.700;4.880;2023-08-21T12:24:31;50.60;43.30
17092;DHT22;8661;45.700;4.880;2023-08-21T12:26:59;50.60;43.60
17092;DHT22;8661;45.700;4.880;2023-08-21T12:29:26;50.60;43.60
17092;DHT22;8661;45.700;4.880;2023-08-21T12:31:53;50.80;43.70
17092;DHT22;8661;45.700;4.880;2023-08-21T12:34:20;50.70;43.00
17092;DHT22;8661;45.700;4.880;2023-08-21T12:36:49;50.50;43.50
17092;DHT22;8661;45.700;4.880;2023-08-21T12:39:16;50.60;43.30
17092;DHT22;8661;45.700;4.880;2023-08-21T12:41:43;50.50;43.10
17092;DHT22;8661;45.700;4.880;2023-08-21T12:44:12;50.40;42.50
17092;DHT22;8661;45.700;4.880;2023-08-21T12:46:39;50.10;42.60
17092;DHT22;8661;45.700;4.880;2023-08-21T12:49:06;50.10;42.50
17092;DHT22;8661;45.700;4.880;2023-08-21T12:51:33;50.00;42.70
17092;DHT22;8661;45.700;4.880;2023-08-21T12:54:00;50.10;42.70
17092;DHT22;8661;45.700;4.880;2023-08-21T12:56:27;50.40;42.30
17092;DHT22;8661;45.700;4.880;2023-08-21T12:58:53;50.60;42.70
17092;DHT22;8661;45.700;4.880;2023-08-21T13:01:22;50.70;43.00
17092;DHT22;8661;45.700;4.880;2023-08-21T13:03:49;50.70;42.60
17092;DHT22;8661;45.700;4.880;2023-08-21T13:06:16;50.60;42.40
17092;DHT22;8661;45.700;4.880;2023-08-21T13:08:42;50.60;41.60
17092;DHT22;8661;45.700;4.880;2023-08-21T13:11:09;50.30;41.80
17092;DHT22;8661;45.700;4.880;2023-08-21T13:13:36;50.40;42.00
17092;DHT22;8661;45.700;4.880;2023-08-21T13:16:03;50.30;42.60
17092;DHT22;8661;45.700;4.880;2023-08-21T13:18:32;50.50;42.90
17092;DHT22;8661;45.700;4.880;2023-08-21T13:20:58;50.50;42.60
17092;DHT22;8661;45.700;4.880;2023-08-21T13:23:25;50.60;42.30
17092;DHT22;8661;45.700;4.880;2023-08-21T13:25:52;50.60;42.60
17092;DHT22;8661;45.700;4.880;2023-08-21T13:28:19;50.10;41.90
17092;DHT22;8661;45.700;4.880;2023-08-21T13:30:46;49.90;42.40
17092;DHT22;8661;45.700;4.880;2023-08-21T13:33:14;50.10;42.20
17092;DHT22;8661;45.700;4.880;2023-08-21T13:35:45;50.20;42.60
17092;DHT22;8661;45.700;4.880;2023-08-21T13:38:12;50.50;42.70
17092;DHT22;8661;45.700;4.880;2023-08-21T13:40:39;50.40;42.80
17092;DHT22;8661;45.700;4.880;2023-08-21T13:43:07;50.20;41.60
17092;DHT22;8661;45.700;4.880;2023-08-21T13:45:35;49.80;41.70
17092;DHT22;8661;45.700;4.880;2023-08-21T13:48:02;50.00;41.10
17092;DHT22;8661;45.700;4.880;2023-08-21T13:50:30;49.80;41.80
17092;DHT22;8661;45.700;4.880;2023-08-21T13:52:58;49.80;42.20
17092;DHT22;8661;45.700;4.880;2023-08-21T13:55:26;49.90;42.00
17092;DHT22;8661;45.700;4.880;2023-08-21T13:57:53;50.10;42.40
17092;DHT22;8661;45.700;4.880;2023-08-21T14:00:20;50.10;42.10
17092;DHT22;8661;45.700;4.880;2023-08-21T14:02:47;49.90;41.70
17092;DHT22;8661;45.700;4.880;2023-08-21T14:05:14;49.60;41.20
17092;DHT22;8661;45.700;4.880;2023-08-21T14:07:41;49.10;41.40
17092;DHT22;8661;45.700;4.880;2023-08-21T14:10:09;48.70;42.70
17092;DHT22;8661;45.700;4.880;2023-08-21T14:12:37;48.90;43.10
17092;DHT22;8661;45.700;4.880;2023-08-21T14:15:05;49.20;42.50
17092;DHT22;8661;45.700;4.880;2023-08-21T14:17:32;49.10;42.40
17092;DHT22;8661;45.700;4.880;2023-08-21T14:19:59;49.20;42.70
17092;DHT22;8661;45.700;4.880;2023-08-21T14:22:26;49.20;42.20
17092;DHT22;8661;45.700;4.880;2023-08-21T14:24:53;49.00;42.10
17092;DHT22;8661;45.700;4.880;2023-08-21T14:27:21;49.10;42.60
17092;DHT22;8661;45.700;4.880;2023-08-21T14:29:48;49.20;42.50
17092;DHT22;8661;45.700;4.880;2023-08-21T14:32:15;49.20;41.90
17092;DHT22;8661;45.700;4.880;2023-08-21T14:34:42;49.00;41.70
17092;DHT22;8661;45.700;4.880;2023-08-21T14:37:08;49.10;41.70
17092;DHT22;8661;45.700;4.880;2023-08-21T14:39:39;49.50;41.00
17092;DHT22;8661;45.700;4.880;2023-08-21T14:42:06;50.10;41.20
17092;DHT22;8661;45.700;4.880;2023-08-21T14:44:34;50.40;40.50
17092;DHT22;8661;45.700;4.880;2023-08-21T14:47:01;50.90;40.50
17092;DHT22;8661;45.700;4.880;2023-08-21T14:49:28;51.30;39.90
17092;DHT22;8661;45.700;4.880;2023-08-21T14:51:55;51.30;40.10
17092;DHT22;8661;45.700;4.880;2023-08-21T14:54:23;51.50;40.20
17092;DHT22;8661;45.700;4.880;2023-08-21T14:56:50;51.90;39.80
17092;DHT22;8661;45.700;4.880;2023-08-21T14:59:17;51.90;39.80
17092;DHT22;8661;45.700;4.880;2023-08-21T15:01:45;50.90;40.00
17092;DHT22;8661;45.700;4.880;2023-08-21T15:04:12;49.70;40.80
17092;DHT22;8661;45.700;4.880;2023-08-21T15:06:39;49.10;41.50
17092;DHT22;8661;45.700;4.880;2023-08-21T15:09:06;48.50;41.80
17092;DHT22;8661;45.700;4.880;2023-08-21T15:11:33;48.00;41.90
17092;DHT22;8661;45.700;4.880;2023-08-21T15:14:01;47.70;42.70
17092;DHT22;8661;45.700;4.880;2023-08-21T15:16:29;47.30;43.10
17092;DHT22;8661;45.700;4.880;2023-08-21T15:18:57;47.10;43.10
17092;DHT22;8661;45.700;4.880;2023-08-21T15:21:24;46.70;43.60
17092;DHT22;8661;45.700;4.880;2023-08-21T15:23:51;46.30;43.90
17092;DHT22;8661;45.700;4.880;2023-08-21T15:26:18;45.50;44.40
17092;DHT22;8661;45.700;4.880;2023-08-21T15:28:45;45.00;45.00
17092;DHT22;8661;45.700;4.880;2023-08-21T15:31:12;44.90;45.60
17092;DHT22;8661;45.700;4.880;2023-08-21T15:33:39;44.30;46.00
17092;DHT22;8661;45.700;4.880;2023-08-21T15:36:07;43.90;46.40
17092;DHT22;8661;45.700;4.880;2023-08-21T15:38:34;43.40;46.90
17092;DHT22;8661;45.700;4.880;2023-08-21T15:41:01;43.30;47.20
17092;DHT22;8661;45.700;4.880;2023-08-21T15:43:28;43.20;47.60
17092;DHT22;8661;45.700;4.880;2023-08-21T15:45:55;43.00;47.70
17092;DHT22;8661;45.700;4.880;2023-08-21T15:48:21;42.70;48.40